Time;durP1;ratioP1;P1;durP2;ratioP2;P2;SDS_P1;SDS_P2;PMS_P1;PMS_P2;Temp;Humidity;BMP_temperature;BMP_pressure;BME280_temperature;BME280_humidity;BME280_pressure;Samples;Min_cycle;Max_cycle;Signal;HPM_P1;HPM_P2
2022/04/09 00:04:38;;;;;;;0.70;0.70;;;15.40;36.70;;;;;;10379138;28;20321;-76
2022/04/09 00:09:42;;;;;;;3.43;1.10;;;15.40;36.60;;;;;;10377312;28;20244;-77
2022/04/09 00:14:45;;;;;;;0.80;0.70;;;15.30;36.70;;;;;;10388763;28;20226;-77
2022/04/09 00:19:51;;;;;;;1.50;0.80;;;15.30;36.90;;;;;;10388758;28;20775;-77
2022/04/09 00:24:54;;;;;;;1.00;0.80;;;15.30;36.80;;;;;;10386119;28;20226;-77
2022/04/09 00:29:57;;;;;;;2.10;0.90;;;15.30;37.10;;;;;;10385191;28;20721;-78
2022/04/09 00:35:03;;;;;;;1.17;0.87;;;15.20;37.50;;;;;;10385099;28;20332;-78
2022/04/09 00:40:07;;;;;;;1.10;1.00;;;15.20;37.60;;;;;;10380642;28;20312;-78
2022/04/09 00:45:12;;;;;;;0.67;0.67;;;15.00;37.30;;;;;;10378592;28;20230;-79
2022/04/09 00:50:16;;;;;;;0.70;0.70;;;14.60;34.90;;;;;;10389381;28;20322;-77
2022/04/09 00:56:12;;;;;;;0.70;0.70;;;13.70;34.30;;;;;;10383162;28;20241;-78
2022/04/09 01:00:46;;;;;;;0.50;0.50;;;12.70;34.90;;;;;;10386863;28;21032;-79
2022/04/09 01:05:52;;;;;;;0.50;0.50;;;11.70;35.40;;;;;;10388427;28;20233;-78
2022/04/09 01:10:55;;;;;;;0.50;0.50;;;11.20;36.30;;;;;;10393235;28;20233;-78
2022/04/09 01:15:58;;;;;;;2.53;0.50;;;10.80;36.20;;;;;;10388113;28;20230;-78
2022/04/09 01:21:05;;;;;;;0.40;0.40;;;10.30;35.80;;;;;;10390985;28;20309;-78
2022/04/09 01:26:10;;;;;;;0.40;0.40;;;9.80;37.40;;;;;;10388124;28;20234;-78
2022/04/09 01:31:13;;;;;;;0.40;0.40;;;9.30;37.70;;;;;;10387978;28;20233;-77
2022/04/09 01:36:16;;;;;;;0.50;0.50;;;9.00;38.20;;;;;;10389461;28;20262;-77
2022/04/09 01:41:21;;;;;;;0.40;0.40;;;8.60;38.90;;;;;;10388743;28;20225;-77
2022/04/09 01:46:24;;;;;;;0.40;0.40;;;8.20;39.40;;;;;;10391056;28;20236;-78
2022/04/09 01:51:27;;;;;;;0.40;0.40;;;7.90;39.50;;;;;;10396871;28;20224;-77
2022/04/09 01:56:32;;;;;;;0.40;0.40;;;7.70;40.00;;;;;;10393709;28;20230;-76
2022/04/09 02:01:35;;;;;;;0.40;0.40;;;7.60;40.60;;;;;;10384977;28;20225;-77
2022/04/09 02:06:38;;;;;;;0.40;0.40;;;7.50;40.20;;;;;;10387523;28;20232;-77
2022/04/09 02:11:44;;;;;;;0.40;0.40;;;7.40;40.80;;;;;;10394552;28;21038;-76
2022/04/09 02:16:47;;;;;;;0.40;0.40;;;7.20;41.10;;;;;;10389069;28;20585;-77
2022/04/09 02:21:50;;;;;;;0.63;0.40;;;7.10;40.80;;;;;;10390361;28;20309;-77
2022/04/09 02:26:55;;;;;;;0.40;0.40;;;7.00;41.10;;;;;;10390518;28;20303;-76
2022/04/09 02:32:00;;;;;;;0.50;0.50;;;7.00;41.30;;;;;;10388452;28;20232;-77
2022/04/09 02:37:05;;;;;;;0.70;0.70;;;6.90;41.30;;;;;;10388322;28;20225;-77
2022/04/09 02:42:10;;;;;;;0.70;0.70;;;6.90;41.90;;;;;;10389184;28;20241;-76
2022/04/09 02:47:13;;;;;;;0.70;0.70;;;6.80;42.00;;;;;;10385362;28;20237;-76
2022/04/09 02:52:17;;;;;;;0.80;0.80;;;6.80;41.90;;;;;;10397489;28;20593;-78
2022/04/09 02:57:22;;;;;;;0.90;0.90;;;6.90;41.80;;;;;;10388593;28;20237;-77
2022/04/09 03:02:25;;;;;;;1.00;1.00;;;6.90;41.90;;;;;;10392056;28;20228;-77
2022/04/09 03:07:29;;;;;;;1.00;1.00;;;6.90;42.00;;;;;;10394423;28;20237;-78
2022/04/09 03:12:33;;;;;;;1.07;1.00;;;6.90;42.60;;;;;;10387093;28;20225;-76
2022/04/09 03:17:36;;;;;;;0.93;0.93;;;6.80;42.50;;;;;;10404620;28;20229;-78
2022/04/09 03:22:45;;;;;;;1.10;1.10;;;6.70;42.00;;;;;;10375616;28;20695;-77
2022/04/09 03:27:49;;;;;;;1.10;1.10;;;6.80;42.60;;;;;;10378155;28;20240;-77
2022/04/09 03:32:53;;;;;;;1.20;1.10;;;6.80;42.00;;;;;;10400136;28;20227;-77
2022/04/09 03:37:57;;;;;;;1.50;1.50;;;6.90;41.80;;;;;;10375990;28;20226;-77
2022/04/09 03:43:01;;;;;;;1.40;1.30;;;7.00;41.70;;;;;;10399323;28;20520;-77
2022/04/09 03:48:06;;;;;;;1.70;1.60;;;6.90;41.80;;;;;;10394404;28;20255;-76
2022/04/09 03:53:09;;;;;;;1.37;1.37;;;6.90;41.80;;;;;;10390838;28;20313;-77
2022/04/09 03:58:14;;;;;;;1.50;1.40;;;6.90;41.80;;;;;;10384913;28;20230;-77
2022/04/09 04:03:19;;;;;;;1.57;1.47;;;6.90;41.60;;;;;;10389209;28;20312;-77
2022/04/09 04:08:23;;;;;;;1.57;1.47;;;6.90;41.30;;;;;;10396200;28;20229;-77
2022/04/09 04:13:27;;;;;;;1.43;1.40;;;7.00;41.30;;;;;;10399890;28;20245;-76
2022/04/09 04:18:30;;;;;;;1.50;1.40;;;7.00;41.20;;;;;;10395932;28;20230;-79
2022/04/09 04:23:34;;;;;;;1.70;1.60;;;7.10;41.10;;;;;;10398840;28;20221;-77
2022/04/09 04:28:38;;;;;;;2.10;2.00;;;7.10;40.90;;;;;;10390749;28;20226;-78
2022/04/09 04:33:41;;;;;;;2.33;2.23;;;7.10;40.90;;;;;;10392461;28;20222;-77
2022/04/09 04:38:45;;;;;;;4.20;2.23;;;7.00;40.80;;;;;;10391784;28;20236;-77
2022/04/09 04:43:51;;;;;;;2.43;2.23;;;7.00;40.60;;;;;;10400520;28;20222;-77
2022/04/09 04:48:55;;;;;;;2.60;2.40;;;6.90;40.90;;;;;;10409991;28;20288;-77
2022/04/09 04:53:58;;;;;;;2.47;2.27;;;6.90;40.70;;;;;;10389541;28;20584;-77
2022/04/09 04:59:02;;;;;;;3.03;2.77;;;7.00;40.70;;;;;;10392748;28;20225;-77
2022/04/09 05:04:07;;;;;;;3.90;3.60;;;7.10;40.90;;;;;;10396999;28;20236;-78
2022/04/09 05:09:10;;;;;;;4.13;3.80;;;7.10;40.60;;;;;;10398810;28;20230;-78
2022/04/09 05:14:15;;;;;;;4.90;4.50;;;7.10;40.50;;;;;;10391492;28;20232;-77
2022/04/09 05:19:18;;;;;;;5.20;4.80;;;7.20;40.90;;;;;;10394705;28;20261;-77
2022/04/09 05:24:21;;;;;;;6.10;5.60;;;7.10;40.80;;;;;;10402223;28;20230;-79
2022/04/09 05:29:27;;;;;;;6.20;5.70;;;7.10;40.90;;;;;;10398931;28;20305;-78
2022/04/09 05:34:30;;;;;;;6.83;6.20;;;7.10;41.20;;;;;;10402964;28;20236;-78
2022/04/09 05:39:33;;;;;;;6.27;5.77;;;7.00;41.00;;;;;;10401219;28;20581;-78
2022/04/09 05:44:38;;;;;;;7.00;6.40;;;7.00;40.90;;;;;;10401446;28;20229;-78
2022/04/09 05:49:41;;;;;;;7.03;6.43;;;7.10;41.50;;;;;;10396047;28;20228;-78
2022/04/09 05:54:44;;;;;;;7.60;7.00;;;7.10;41.10;;;;;;10397207;28;20614;-79
2022/04/09 05:59:50;;;;;;;7.73;6.97;;;7.10;41.40;;;;;;10402995;28;20226;-78
2022/04/09 06:04:53;;;;;;;6.87;6.30;;;7.10;41.80;;;;;;10394121;28;20226;-78
2022/04/09 06:09:56;;;;;;;6.90;6.30;;;7.10;41.40;;;;;;10401590;28;20717;-78
2022/04/09 06:15:01;;;;;;;5.73;5.33;;;7.10;41.30;;;;;;10401628;28;20308;-78
2022/04/09 06:20:06;;;;;;;6.97;6.27;;;7.20;41.30;;;;;;10415953;28;20235;-79
2022/04/09 06:25:13;;;;;;;6.77;6.07;;;7.20;41.10;;;;;;10407815;28;20284;-78
2022/04/09 06:30:17;;;;;;;6.63;6.03;;;7.20;40.90;;;;;;10397577;28;20248;-78
2022/04/09 06:35:21;;;;;;;7.53;6.07;;;7.30;41.10;;;;;;10405845;28;20218;-77
2022/04/09 06:40:26;;;;;;;6.97;6.33;;;7.30;40.70;;;;;;10410334;28;20701;-77
2022/04/09 06:45:31;;;;;;;6.13;5.63;;;7.30;40.60;;;;;;10406172;28;20234;-77
2022/04/09 06:50:34;;;;;;;8.30;6.00;;;7.30;40.80;;;;;;10400020;28;20600;-77
2022/04/09 06:55:38;;;;;;;5.67;5.17;;;7.30;40.40;;;;;;10383395;28;20222;-78
2022/04/09 07:00:44;;;;;;;6.10;5.50;;;7.40;40.50;;;;;;10389216;28;20640;-77
2022/04/09 07:05:47;;;;;;;6.07;5.30;;;7.40;40.50;;;;;;10389681;28;20229;-78
2022/04/09 07:10:51;;;;;;;6.13;5.53;;;7.50;40.60;;;;;;10393974;28;20691;-78
2022/04/09 07:15:56;;;;;;;6.00;5.13;;;7.60;40.60;;;;;;10404105;28;20321;-77
2022/04/09 07:21:01;;;;;;;5.20;4.70;;;7.60;40.00;;;;;;10400365;28;20271;-78
2022/04/09 07:26:04;;;;;;;4.90;4.43;;;7.70;40.10;;;;;;10384804;28;20234;-79
2022/04/09 07:31:09;;;;;;;6.17;4.30;;;7.80;40.50;;;;;;10403591;28;20314;-78
2022/04/09 07:36:12;;;;;;;4.80;4.20;;;7.90;40.50;;;;;;10404954;28;20632;-77
2022/04/09 07:41:15;;;;;;;4.90;4.17;;;8.00;39.60;;;;;;10383269;28;20229;-80
2022/04/09 07:46:20;;;;;;;4.20;3.80;;;8.10;39.90;;;;;;10380640;28;20257;-79
2022/04/09 07:51:24;;;;;;;5.17;4.67;;;8.20;40.00;;;;;;10385227;28;20225;-77
2022/04/09 07:56:31;;;;;;;7.53;5.37;;;8.30;39.50;;;;;;10390222;28;20240;-75
2022/04/09 08:01:35;;;;;;;5.87;4.63;;;8.30;39.50;;;;;;10409648;28;20221;-76
2022/04/09 08:06:39;;;;;;;6.57;4.30;;;8.40;39.00;;;;;;10379641;28;20224;-75
2022/04/09 08:11:42;;;;;;;5.60;4.60;;;8.50;39.20;;;;;;10392654;28;20229;-78
2022/04/09 08:16:47;;;;;;;5.10;4.50;;;8.50;39.00;;;;;;10396898;28;20221;-75
2022/04/09 08:21:52;;;;;;;5.03;4.53;;;8.50;38.70;;;;;;10407965;28;20304;-78
2022/04/09 08:26:55;;;;;;;4.60;4.20;;;8.50;38.60;;;;;;10404151;28;20256;-76
2022/04/09 08:32:01;;;;;;;4.47;4.07;;;8.40;38.60;;;;;;10411261;28;21078;-76
2022/04/09 08:37:06;;;;;;;4.33;3.33;;;8.40;37.80;;;;;;10395579;28;20229;-74
2022/04/09 08:42:11;;;;;;;4.40;4.00;;;8.40;38.10;;;;;;10406664;28;20230;-76
2022/04/09 08:47:16;;;;;;;4.53;4.13;;;8.40;38.10;;;;;;10405413;28;20226;-77
2022/04/09 08:52:19;;;;;;;4.40;4.00;;;8.40;38.10;;;;;;10403383;28;20253;-78
2022/04/09 08:57:22;;;;;;;4.73;3.80;;;8.50;37.50;;;;;;10390522;28;20977;-78
2022/04/09 09:02:31;;;;;;;3.90;3.37;;;8.50;37.60;;;;;;10394293;28;20232;-78
2022/04/09 09:07:45;;;;;;;3.93;3.33;;;8.60;38.10;;;;;;10388053;28;20234;-78
2022/04/09 09:12:59;;;;;;;5.40;3.40;;;8.60;37.40;;;;;;10390794;28;20225;-78
2022/04/09 09:18:06;;;;;;;5.30;3.47;;;8.70;37.90;;;;;;10392194;28;20229;-78
2022/04/09 09:23:20;;;;;;;4.00;2.57;;;8.80;37.30;;;;;;10395077;28;20236;-78
2022/04/09 09:28:25;;;;;;;3.93;2.50;;;9.00;36.10;;;;;;10393389;28;20233;-78
2022/04/09 09:33:30;;;;;;;3.90;2.40;;;9.00;37.00;;;;;;10397844;28;20240;-77
2022/04/09 09:39:03;;;;;;;4.43;2.20;;;9.10;36.70;;;;;;10394049;28;20230;-77
2022/04/09 09:44:07;;;;;;;3.70;2.50;;;9.20;35.40;;;;;;10392262;28;20289;-78
2022/04/09 09:49:12;;;;;;;4.93;2.10;;;9.20;37.00;;;;;;10390563;28;20240;-77
2022/04/09 09:54:15;;;;;;;4.73;2.43;;;9.40;35.90;;;;;;10392780;28;20308;-78
2022/04/09 09:59:21;;;;;;;5.17;2.60;;;9.50;36.30;;;;;;10393156;28;20233;-78
2022/04/09 10:04:26;;;;;;;4.50;2.60;;;9.50;36.70;;;;;;10400465;28;20223;-77
2022/04/09 10:09:29;;;;;;;3.57;2.33;;;9.60;36.10;;;;;;10402384;28;20222;-79
2022/04/09 10:14:34;;;;;;;3.30;1.77;;;9.60;36.60;;;;;;10394890;28;20765;-77
2022/04/09 10:19:42;;;;;;;4.80;2.30;;;9.60;35.10;;;;;;10396200;28;20235;-76
2022/04/09 10:24:45;;;;;;;4.37;2.40;;;9.60;34.80;;;;;;10397517;28;20230;-77
2022/04/09 10:29:49;;;;;;;3.50;2.20;;;9.50;35.30;;;;;;10401717;28;20238;-79
2022/04/09 10:34:55;;;;;;;3.00;2.03;;;9.50;35.30;;;;;;10395142;28;20235;-79
2022/04/09 10:40:05;;;;;;;3.90;2.10;;;9.50;34.90;;;;;;10397354;28;20672;-77
2022/04/09 10:45:10;;;;;;;2.70;2.10;;;9.50;35.10;;;;;;10392351;28;20301;-78
2022/04/09 10:50:14;;;;;;;5.00;2.10;;;9.50;35.70;;;;;;10392817;28;20593;-78
2022/04/09 10:55:31;;;;;;;4.60;2.07;;;9.50;35.60;;;;;;10395027;28;20234;-78
2022/04/09 11:00:43;;;;;;;6.80;2.10;;;9.60;34.70;;;;;;10389256;28;20249;-78
2022/04/09 11:05:48;;;;;;;2.97;1.60;;;9.60;35.00;;;;;;10387789;28;20276;-78
2022/04/09 11:10:52;;;;;;;3.47;1.70;;;9.60;34.50;;;;;;10385885;28;20217;-78
2022/04/09 11:15:56;;;;;;;3.10;1.47;;;9.70;35.10;;;;;;10391939;28;20249;-76
2022/04/09 11:21:02;;;;;;;4.10;1.70;;;9.70;35.00;;;;;;10391822;28;20230;-77
2022/04/09 11:26:06;;;;;;;2.97;1.43;;;9.80;34.00;;;;;;10385781;28;20226;-78
2022/04/09 11:31:09;;;;;;;2.30;1.60;;;9.90;34.10;;;;;;10384875;28;20240;-77
2022/04/09 11:36:22;;;;;;;2.70;1.63;;;9.90;33.80;;;;;;10391376;28;20221;-78
2022/04/09 11:41:26;;;;;;;3.67;2.10;;;9.90;33.70;;;;;;10390467;28;20226;-77
2022/04/09 11:46:32;;;;;;;3.60;2.30;;;10.00;33.30;;;;;;10385768;28;20234;-77
2022/04/09 11:51:37;;;;;;;3.37;1.60;;;10.10;33.60;;;;;;10388050;28;20240;-78
2022/04/09 11:56:41;;;;;;;3.83;1.70;;;10.20;32.80;;;;;;10385291;28;20237;-78
2022/04/09 12:01:46;;;;;;;1.50;1.40;;;10.20;32.60;;;;;;10394823;28;20232;-77
2022/04/09 12:06:52;;;;;;;2.70;1.63;;;10.30;32.30;;;;;;10390353;28;20300;-78
2022/04/09 12:11:55;;;;;;;5.17;1.80;;;10.30;32.60;;;;;;10370746;28;20236;-74
2022/04/09 12:17:10;;;;;;;2.53;1.83;;;10.40;32.40;;;;;;10375038;28;20736;-74
2022/04/09 12:22:19;;;;;;;3.40;2.03;;;10.50;30.60;;;;;;10425114;28;20239;-74
2022/04/09 12:27:41;;;;;;;2.87;1.70;;;10.60;30.80;;;;;;10449249;28;20239;-74
2022/04/09 12:32:45;;;;;;;1.73;1.40;;;10.60;30.00;;;;;;10439664;28;20316;-74
2022/04/09 12:37:51;;;;;;;2.23;1.50;;;10.60;31.70;;;;;;10440361;28;20236;-74
2022/04/09 12:42:54;;;;;;;3.53;1.70;;;10.70;30.50;;;;;;10401383;28;20232;-73
2022/04/09 12:47:59;;;;;;;3.07;1.60;;;10.80;30.40;;;;;;10422170;28;20241;-74
2022/04/09 12:53:05;;;;;;;2.50;1.47;;;10.80;30.50;;;;;;10407555;28;20237;-74
2022/04/09 12:58:08;;;;;;;3.27;1.40;;;10.90;30.00;;;;;;10419810;28;20229;-75
2022/04/09 13:03:13;;;;;;;2.03;1.43;;;10.90;29.20;;;;;;10430198;28;20815;-75
2022/04/09 13:08:17;;;;;;;6.37;1.70;;;10.90;29.70;;;;;;10455733;28;20233;-75
2022/04/09 13:13:21;;;;;;;2.50;1.40;;;10.90;29.40;;;;;;10455152;28;20662;-74
2022/04/09 13:18:24;;;;;;;1.83;1.70;;;10.90;30.10;;;;;;10441276;28;20718;-77
2022/04/09 13:23:30;;;;;;;3.50;2.03;;;10.90;29.60;;;;;;10419325;28;20252;-74
2022/04/09 13:28:33;;;;;;;2.80;1.83;;;10.90;29.40;;;;;;10419433;28;20767;-76
2022/04/09 13:33:37;;;;;;;4.67;2.03;;;11.00;29.80;;;;;;10423870;28;20679;-77
2022/04/09 13:38:41;;;;;;;2.53;1.60;;;11.00;29.70;;;;;;10404186;28;20229;-75
2022/04/09 13:43:45;;;;;;;2.60;1.83;;;11.00;29.20;;;;;;10412859;28;20588;-76
2022/04/09 13:48:48;;;;;;;4.80;1.90;;;11.00;29.80;;;;;;10412837;28;20763;-76
2022/04/09 13:53:53;;;;;;;2.43;1.63;;;11.00;29.10;;;;;;10412328;28;20293;-76
2022/04/09 13:58:56;;;;;;;1.60;1.33;;;11.00;29.00;;;;;;10412085;28;20234;-76
2022/04/09 14:03:59;;;;;;;2.97;1.70;;;11.00;30.00;;;;;;10410952;28;20745;-76
2022/04/09 14:09:05;;;;;;;3.37;1.60;;;11.20;30.20;;;;;;10411095;28;20251;-76
2022/04/09 14:14:09;;;;;;;2.80;2.00;;;11.30;29.20;;;;;;10411512;28;20321;-75
2022/04/09 14:19:12;;;;;;;3.17;1.80;;;11.20;27.90;;;;;;10410818;28;20229;-74
2022/04/09 14:24:17;;;;;;;2.17;1.50;;;11.20;29.10;;;;;;10410067;28;20324;-77
2022/04/09 14:29:21;;;;;;;3.37;1.80;;;11.20;29.10;;;;;;10400162;28;20911;-72
2022/04/09 14:34:25;;;;;;;3.50;1.80;;;11.20;29.10;;;;;;10408072;28;20700;-73
2022/04/09 14:39:29;;;;;;;2.97;1.57;;;11.30;29.20;;;;;;10408150;28;20321;-73
2022/04/09 14:44:32;;;;;;;1.70;1.23;;;11.40;28.80;;;;;;10408466;28;20305;-74
2022/04/09 14:49:36;;;;;;;2.40;1.80;;;11.60;29.30;;;;;;10407375;28;20263;-73
2022/04/09 14:54:40;;;;;;;2.47;1.43;;;11.60;28.20;;;;;;10407670;28;20221;-73
2022/04/09 14:59:43;;;;;;;4.10;1.63;;;11.60;28.40;;;;;;10406823;28;20237;-72
2022/04/09 15:04:47;;;;;;;3.17;1.70;;;11.60;28.60;;;;;;10407395;28;20237;-73
2022/04/09 15:09:51;;;;;;;3.67;1.73;;;11.60;28.20;;;;;;10407094;28;20237;-73
2022/04/09 15:14:54;;;;;;;3.03;2.10;;;11.70;28.00;;;;;;10407791;28;20226;-73
2022/04/09 15:19:58;;;;;;;2.40;1.77;;;11.70;28.60;;;;;;10406165;28;20233;-73
2022/04/09 15:25:03;;;;;;;2.47;1.90;;;11.70;28.80;;;;;;10407357;28;20230;-72
2022/04/09 15:30:09;;;;;;;2.90;1.93;;;11.80;28.60;;;;;;10407001;28;20230;-73
2022/04/09 15:35:13;;;;;;;1.93;1.67;;;11.90;27.80;;;;;;10406494;28;20233;-73
2022/04/09 15:40:17;;;;;;;3.50;1.97;;;11.90;28.10;;;;;;10406739;28;20268;-72
2022/04/09 15:45:20;;;;;;;3.53;1.60;;;11.80;27.30;;;;;;10406180;28;20233;-72
2022/04/09 15:50:24;;;;;;;3.57;1.60;;;11.80;28.20;;;;;;10406162;28;20619;-73
2022/04/09 15:55:28;;;;;;;1.50;1.40;;;11.70;28.40;;;;;;10406885;28;20229;-73
2022/04/09 16:00:32;;;;;;;3.03;1.43;;;11.80;28.20;;;;;;10406080;28;20225;-73
2022/04/09 16:05:35;;;;;;;2.00;1.50;;;11.70;27.90;;;;;;10405617;28;20231;-73
2022/04/09 16:10:40;;;;;;;3.97;1.93;;;11.80;28.60;;;;;;10406106;28;20233;-73
2022/04/09 16:15:43;;;;;;;2.13;1.73;;;11.90;27.80;;;;;;10406111;28;20726;-73
2022/04/09 16:20:46;;;;;;;3.53;1.90;;;11.90;28.50;;;;;;10405959;28;20287;-73
2022/04/09 16:25:52;;;;;;;2.70;2.00;;;12.00;28.10;;;;;;10406387;28;20229;-73
2022/04/09 16:30:56;;;;;;;2.43;1.90;;;11.90;28.00;;;;;;10411582;28;20256;-73
2022/04/09 16:35:59;;;;;;;2.83;1.70;;;11.90;28.20;;;;;;10414149;28;20237;-73
2022/04/09 16:41:04;;;;;;;2.87;1.77;;;11.90;28.40;;;;;;10414179;28;20606;-73
2022/04/09 16:46:08;;;;;;;2.07;1.60;;;11.80;27.80;;;;;;10413515;28;20889;-73
2022/04/09 16:51:11;;;;;;;2.10;1.90;;;11.60;28.10;;;;;;10413645;28;20654;-73
2022/04/09 16:56:15;;;;;;;2.60;1.93;;;11.50;28.00;;;;;;10413383;28;20240;-73
2022/04/09 17:01:20;;;;;;;3.53;2.00;;;11.30;27.80;;;;;;10412768;28;20283;-73
2022/04/09 17:06:23;;;;;;;5.27;2.10;;;11.20;28.30;;;;;;10412255;28;20229;-73
2022/04/09 17:11:28;;;;;;;2.90;1.87;;;11.10;28.40;;;;;;10412328;28;20229;-73
2022/04/09 17:16:31;;;;;;;3.53;1.60;;;11.10;28.20;;;;;;10411895;28;20228;-73
2022/04/09 17:21:34;;;;;;;2.77;1.80;;;11.00;28.90;;;;;;10411708;28;20307;-73
2022/04/09 17:26:39;;;;;;;2.00;1.60;;;11.00;28.40;;;;;;10412079;28;20233;-73
2022/04/09 17:31:44;;;;;;;3.03;1.60;;;11.00;28.80;;;;;;10411428;28;20264;-73
2022/04/09 17:36:47;;;;;;;3.43;2.53;;;10.90;28.90;;;;;;10411268;28;20633;-72
2022/04/09 17:41:56;;;;;;;1.77;1.50;;;10.90;28.90;;;;;;10410079;28;20244;-73
2022/04/09 17:47:00;;;;;;;2.70;1.77;;;10.80;28.90;;;;;;10410914;28;20722;-73
2022/04/09 17:52:04;;;;;;;1.93;1.70;;;10.90;28.90;;;;;;10410475;28;20241;-73
2022/04/09 17:57:09;;;;;;;5.17;2.13;;;10.90;28.90;;;;;;10407787;28;20907;-72
2022/04/09 18:02:13;;;;;;;4.13;2.37;;;10.90;29.00;;;;;;10407972;28;20237;-72
2022/04/09 18:07:16;;;;;;;3.23;2.00;;;10.90;28.90;;;;;;10409323;28;20244;-73
2022/04/09 18:12:21;;;;;;;3.20;2.10;;;10.90;28.90;;;;;;10409417;28;20706;-73
2022/04/09 18:17:24;;;;;;;2.20;2.00;;;10.90;28.90;;;;;;10409341;28;20229;-73
2022/04/09 18:22:27;;;;;;;2.93;1.83;;;10.90;29.40;;;;;;10409368;28;20279;-73
2022/04/09 18:27:32;;;;;;;4.00;3.67;;;10.90;29.40;;;;;;10409135;28;20229;-73
2022/04/09 18:32:36;;;;;;;5.37;3.50;;;10.90;29.00;;;;;;10408673;28;20232;-73
2022/04/09 18:37:39;;;;;;;3.83;2.70;;;10.90;29.20;;;;;;10408594;28;20235;-73
2022/04/09 18:42:44;;;;;;;4.33;2.60;;;10.90;28.90;;;;;;10408391;28;20234;-72
2022/04/09 18:47:47;;;;;;;2.73;1.67;;;10.80;28.90;;;;;;10408285;28;20245;-73
2022/04/09 18:52:50;;;;;;;3.17;1.70;;;10.80;28.90;;;;;;10407909;28;20237;-72
2022/04/09 18:57:55;;;;;;;2.83;1.87;;;10.80;28.90;;;;;;10407760;28;20237;-72
2022/04/09 19:02:58;;;;;;;3.37;2.00;;;10.80;28.90;;;;;;10407749;28;20226;-72
2022/04/09 19:08:02;;;;;;;2.60;1.80;;;10.80;28.90;;;;;;10407573;28;20610;-72
2022/04/09 19:13:07;;;;;;;4.20;1.57;;;10.80;29.10;;;;;;10406868;28;20233;-72
2022/04/09 19:18:11;;;;;;;1.80;1.60;;;10.80;29.20;;;;;;10406322;28;20234;-72
2022/04/09 19:23:14;;;;;;;2.27;1.70;;;10.80;29.20;;;;;;10406331;28;20234;-72
2022/04/09 19:28:19;;;;;;;2.43;1.77;;;10.70;29.10;;;;;;10405924;28;20237;-72
2022/04/09 19:33:22;;;;;;;2.40;1.80;;;10.70;29.10;;;;;;10406109;28;20267;-72
2022/04/09 19:38:25;;;;;;;3.47;2.30;;;10.60;29.10;;;;;;10405728;28;20235;-72
2022/04/09 19:43:30;;;;;;;5.10;3.00;;;10.60;29.10;;;;;;10403351;28;20221;-72
2022/04/09 19:48:34;;;;;;;5.63;3.40;;;10.40;28.80;;;;;;10404525;28;20237;-72
2022/04/09 19:53:37;;;;;;;6.50;3.60;;;10.30;29.00;;;;;;10406098;28;20710;-72
2022/04/09 19:58:42;;;;;;;4.47;3.23;;;10.10;29.20;;;;;;10406570;28;20777;-72
2022/04/09 20:03:45;;;;;;;4.37;3.33;;;10.00;29.20;;;;;;10408809;28;20340;-72
2022/04/09 20:08:48;;;;;;;3.13;2.00;;;9.90;30.20;;;;;;10414460;28;20225;-71
2022/04/09 20:13:53;;;;;;;2.17;1.60;;;9.80;30.30;;;;;;10414321;28;20225;-72
2022/04/09 20:18:57;;;;;;;1.80;1.20;;;9.60;30.30;;;;;;10414000;28;20737;-72
2022/04/09 20:24:07;;;;;;;2.17;1.30;;;9.40;30.70;;;;;;10413928;28;20253;-72
2022/04/09 20:29:12;;;;;;;2.33;1.20;;;9.00;31.50;;;;;;10413753;28;20230;-72
2022/04/09 20:34:15;;;;;;;1.07;0.90;;;8.70;32.20;;;;;;10414034;28;20290;-71
2022/04/09 20:39:27;;;;;;;1.77;1.67;;;8.50;32.50;;;;;;10413589;28;20234;-72
2022/04/09 20:44:31;;;;;;;2.80;1.10;;;8.40;32.60;;;;;;10413871;28;20233;-71
2022/04/09 20:49:34;;;;;;;1.60;1.10;;;8.30;33.00;;;;;;10412767;28;20600;-72
2022/04/09 20:54:38;;;;;;;1.37;1.00;;;8.30;32.70;;;;;;10410740;28;20228;-72
2022/04/09 20:59:43;;;;;;;1.27;1.00;;;8.30;32.80;;;;;;10410258;28;20230;-72
2022/04/09 21:04:47;;;;;;;2.07;1.13;;;8.40;33.20;;;;;;10407135;28;20234;-71
2022/04/09 21:09:50;;;;;;;0.93;0.80;;;8.50;33.10;;;;;;10444568;28;20244;-71
2022/04/09 21:14:55;;;;;;;1.77;0.90;;;8.60;33.00;;;;;;10448925;28;20654;-71
2022/04/09 21:19:58;;;;;;;32.17;18.20;;;8.60;33.10;;;;;;10449848;28;20232;-71
2022/04/09 21:25:01;;;;;;;72.63;41.67;;;8.60;32.70;;;;;;10449819;28;20236;-71
2022/04/09 21:30:07;;;;;;;10.33;5.87;;;8.60;32.60;;;;;;10449345;28;20240;-71
2022/04/09 21:35:11;;;;;;;6.17;3.70;;;8.50;33.00;;;;;;10449675;28;20229;-71
2022/04/09 21:40:14;;;;;;;3.73;2.60;;;8.40;32.70;;;;;;10449104;28;20239;-71
2022/04/09 21:45:19;;;;;;;4.20;2.37;;;8.40;32.80;;;;;;10449642;28;20233;-71
2022/04/09 21:50:22;;;;;;;3.30;2.10;;;8.40;32.90;;;;;;10449179;28;20237;-71
2022/04/09 21:55:26;;;;;;;2.27;1.80;;;8.30;33.00;;;;;;10448748;28;20233;-71
2022/04/09 22:00:47;;;;;;;2.63;2.23;;;8.20;33.10;;;;;;10448663;28;20238;-71
2022/04/09 22:05:51;;;;;;;2.90;2.60;;;8.20;33.70;;;;;;10450751;28;20228;-71
2022/04/09 22:10:54;;;;;;;2.40;1.93;;;8.20;33.20;;;;;;10450581;28;20225;-71
2022/04/09 22:15:59;;;;;;;2.33;1.80;;;8.20;33.30;;;;;;10450561;28;20241;-71
2022/04/09 22:21:03;;;;;;;2.30;1.63;;;8.20;33.30;;;;;;10450345;28;21003;-71
2022/04/09 22:26:06;;;;;;;1.60;1.50;;;8.20;33.20;;;;;;10449516;28;20239;-71
2022/04/09 22:31:11;;;;;;;2.10;1.10;;;8.20;33.40;;;;;;10400071;28;20232;-72
2022/04/09 22:36:14;;;;;;;1.47;1.20;;;8.20;33.40;;;;;;10385777;28;20231;-72
2022/04/09 22:41:17;;;;;;;2.00;1.40;;;8.20;33.30;;;;;;10385439;28;20603;-72
2022/04/09 22:46:22;;;;;;;2.63;1.67;;;8.20;33.30;;;;;;10378826;28;20608;-73
2022/04/09 22:51:25;;;;;;;1.50;1.30;;;8.20;33.50;;;;;;10372632;28;20782;-72
2022/04/09 22:56:28;;;;;;;2.90;1.97;;;8.10;33.40;;;;;;10387150;28;20225;-72
2022/04/09 23:01:33;;;;;;;2.77;1.60;;;8.10;33.70;;;;;;10376493;28;20228;-72
2022/04/09 23:06:36;;;;;;;2.70;1.80;;;8.00;33.90;;;;;;10379323;28;20230;-72
2022/04/09 23:11:44;;;;;;;3.03;1.73;;;8.00;33.60;;;;;;10377998;28;20223;-72
2022/04/09 23:16:49;;;;;;;1.87;1.63;;;8.00;33.60;;;;;;10381035;28;20230;-72
2022/04/09 23:21:52;;;;;;;2.40;1.57;;;8.00;33.80;;;;;;10382740;28;20281;-72
2022/04/09 23:26:55;;;;;;;1.97;1.80;;;7.90;33.60;;;;;;10387305;28;20229;-72
2022/04/09 23:32:00;;;;;;;1.90;1.70;;;8.00;33.90;;;;;;10379908;28;20229;-72
2022/04/09 23:37:03;;;;;;;2.53;1.90;;;8.00;34.00;;;;;;10385376;28;20230;-73
2022/04/09 23:42:07;;;;;;;3.87;1.70;;;8.00;33.70;;;;;;10379742;28;20236;-72
2022/04/09 23:47:12;;;;;;;1.90;1.70;;;8.00;33.70;;;;;;10372460;22;20773;-74
2022/04/09 23:52:15;;;;;;;2.27;1.70;;;8.00;33.90;;;;;;10351100;28;20594;-75
2022/04/09 23:57:19;;;;;;;2.17;1.60;;;8.00;33.70;;;;;;10354103;28;20242;-74
